createdAt,value
2023-02-19T00:01:13.431Z,9.71
2023-02-19T00:03:41.819Z,9.59
2023-02-19T00:06:11.030Z,9.43
2023-02-19T00:08:38.831Z,9.48
2023-02-19T00:11:08.592Z,9.47
2023-02-19T00:13:40.243Z,9.49
2023-02-19T00:16:08.498Z,9.72
2023-02-19T00:18:36.136Z,9.73
2023-02-19T00:21:03.171Z,9.56
2023-02-19T00:23:30.095Z,9.52
2023-02-19T00:26:00.953Z,9.41
2023-02-19T00:28:29.702Z,9.33
2023-02-19T00:30:56.206Z,9.38
2023-02-19T00:33:22.741Z,9.45
2023-02-19T00:35:49.478Z,9.59
2023-02-19T00:38:15.963Z,9.65
2023-02-19T00:40:42.352Z,9.58
2023-02-19T00:43:08.750Z,9.48
2023-02-19T00:45:35.645Z,9.38
2023-02-19T00:48:02.076Z,9.35
2023-02-19T00:50:28.525Z,9.28
2023-02-19T00:52:54.933Z,9.36
2023-02-19T00:55:21.314Z,9.49
2023-02-19T00:57:47.685Z,9.57
2023-02-19T01:00:14.372Z,9.65
2023-02-19T01:02:40.945Z,9.61
2023-02-19T01:05:08.305Z,9.57
2023-02-19T01:07:38.689Z,9.50
2023-02-19T01:10:05.762Z,9.35
2023-02-19T01:12:32.465Z,9.34
2023-02-19T01:14:59.032Z,9.29
2023-02-19T01:17:25.567Z,9.29
2023-02-19T01:19:52.122Z,9.49
2023-02-19T01:22:18.542Z,9.48
2023-02-19T01:24:44.937Z,9.36
2023-02-19T01:27:11.342Z,9.49
2023-02-19T01:29:37.864Z,9.50
2023-02-19T01:32:04.370Z,9.50
2023-02-19T01:34:33.243Z,9.32
2023-02-19T01:37:00.075Z,9.28
2023-02-19T01:39:26.417Z,9.18
2023-02-19T01:41:52.848Z,9.11
2023-02-19T01:44:22.166Z,9.17
2023-02-19T01:46:48.684Z,9.22
2023-02-19T01:49:21.242Z,9.27
2023-02-19T01:51:54.273Z,9.32
2023-02-19T01:54:25.065Z,9.44
2023-02-19T01:56:52.282Z,9.18
2023-02-19T01:59:18.936Z,9.29
2023-02-19T02:01:46.107Z,9.26
2023-02-19T02:04:13.933Z,9.14
2023-02-19T02:06:49.593Z,9.18
2023-02-19T02:09:37.693Z,9.23
2023-02-19T02:12:04.418Z,9.13
2023-02-19T02:14:34.922Z,9.20
2023-02-19T02:17:20.179Z,9.19
2023-02-19T02:20:10.394Z,9.15
2023-02-19T02:23:11.963Z,9.16
2023-02-19T02:25:59.448Z,9.04
2023-02-19T02:28:36.319Z,9.07
2023-02-19T02:31:25.033Z,9.05
2023-02-19T02:34:04.599Z,8.97
2023-02-19T02:36:38.648Z,9.05
2023-02-19T02:39:09.107Z,9.16
2023-02-19T02:41:42.230Z,9.18
2023-02-19T02:44:08.589Z,9.22
2023-02-19T02:46:38.743Z,9.21
2023-02-19T02:49:08.962Z,9.38
2023-02-19T02:51:43.958Z,9.22
2023-02-19T02:54:37.415Z,9.17
2023-02-19T02:57:04.625Z,9.20
2023-02-19T02:59:35.752Z,9.18
2023-02-19T03:02:12.320Z,9.24
2023-02-19T03:05:14.994Z,9.12
2023-02-19T03:07:55.897Z,9.29
2023-02-19T03:10:36.108Z,9.26
2023-02-19T03:13:24.694Z,9.10
2023-02-19T03:16:15.087Z,9.15
2023-02-19T03:19:05.030Z,9.24
2023-02-19T03:21:34.864Z,9.21
2023-02-19T03:24:21.769Z,9.19
2023-02-19T03:26:53.841Z,9.04
2023-02-19T03:29:26.417Z,8.89
2023-02-19T03:32:00.724Z,9.16
2023-02-19T03:34:34.760Z,9.40
2023-02-19T03:37:08.813Z,9.29
2023-02-19T03:39:44.157Z,9.21
2023-02-19T03:42:58.953Z,9.18
2023-02-19T03:45:50.289Z,9.18
2023-02-19T03:48:25.112Z,9.15
2023-02-19T03:51:16.271Z,9.15
2023-02-19T03:54:07.529Z,9.30
2023-02-19T03:56:42.742Z,9.38
2023-02-19T03:59:09.096Z,9.27
2023-02-19T04:01:47.127Z,9.19
2023-02-19T04:04:21.785Z,9.44
2023-02-19T04:06:53.870Z,9.45
2023-02-19T04:09:22.805Z,9.29
2023-02-19T04:11:51.694Z,9.26
2023-02-19T04:14:31.054Z,9.26
2023-02-19T04:17:06.286Z,9.14
2023-02-19T04:19:36.705Z,9.14
2023-02-19T04:22:05.738Z,9.12
2023-02-19T04:24:44.358Z,9.11
2023-02-19T04:27:11.119Z,9.19
2023-02-19T04:29:39.184Z,9.22
2023-02-19T04:32:06.478Z,9.15
2023-02-19T04:34:33.154Z,9.17
2023-02-19T04:36:59.481Z,9.34
2023-02-19T04:39:25.869Z,9.28
2023-02-19T04:41:52.194Z,9.17
2023-02-19T04:44:18.598Z,9.22
2023-02-19T04:46:45.353Z,9.18
2023-02-19T04:49:11.796Z,9.24
2023-02-19T04:51:39.038Z,9.26
2023-02-19T04:54:05.558Z,9.23
2023-02-19T04:56:32.020Z,9.13
2023-02-19T04:58:58.425Z,9.32
2023-02-19T05:01:25.437Z,9.25
2023-02-19T05:03:52.410Z,9.22
2023-02-19T05:06:18.935Z,9.17
2023-02-19T05:08:45.406Z,9.23
2023-02-19T05:11:12.932Z,9.31
2023-02-19T05:13:39.851Z,9.21
2023-02-19T05:16:13.774Z,9.14
2023-02-19T05:18:41.524Z,9.10
2023-02-19T05:21:09.266Z,9.07
2023-02-19T05:23:36.091Z,9.14
2023-02-19T05:26:12.245Z,9.14
2023-02-19T05:28:39.098Z,9.29
2023-02-19T05:31:09.060Z,9.17
2023-02-19T05:33:37.209Z,9.22
2023-02-19T05:36:12.293Z,9.32
2023-02-19T05:38:40.111Z,9.24
2023-02-19T05:41:14.448Z,9.27
2023-02-19T05:43:42.353Z,9.23
2023-02-19T05:46:10.386Z,9.25
2023-02-19T05:48:37.330Z,9.33
2023-02-19T05:51:05.882Z,9.19
2023-02-19T05:53:33.028Z,9.24
2023-02-19T05:55:59.897Z,9.26
2023-02-19T05:58:27.492Z,9.24
2023-02-19T06:00:53.989Z,9.24
2023-02-19T06:03:21.093Z,9.26
2023-02-19T06:05:47.732Z,9.28
2023-02-19T06:08:15.832Z,9.22
2023-02-19T06:10:42.473Z,9.20
2023-02-19T06:13:09.875Z,9.20
2023-02-19T06:15:37.168Z,9.34
2023-02-19T06:18:04.238Z,9.26
2023-02-19T06:20:30.615Z,9.20
2023-02-19T06:22:57.017Z,9.23
2023-02-19T06:25:23.449Z,9.15
2023-02-19T06:27:49.874Z,9.16
2023-02-19T06:30:16.363Z,9.11
2023-02-19T06:32:42.782Z,9.07
2023-02-19T06:35:09.191Z,9.05
2023-02-19T06:37:35.783Z,9.10
2023-02-19T06:40:02.192Z,9.08
2023-02-19T06:42:32.535Z,9.03
2023-02-19T06:44:59.005Z,9.02
2023-02-19T06:47:25.588Z,9.02
2023-02-19T06:49:52.033Z,9.06
2023-02-19T06:52:18.441Z,9.02
2023-02-19T06:54:44.883Z,9.04
2023-02-19T06:57:11.295Z,9.03
2023-02-19T06:59:37.691Z,9.05
2023-02-19T07:02:04.082Z,9.00
2023-02-19T07:04:30.464Z,9.02
2023-02-19T07:06:57.011Z,9.05
2023-02-19T07:09:25.306Z,9.09
2023-02-19T07:11:52.298Z,9.05
2023-02-19T07:14:18.961Z,9.17
2023-02-19T07:16:47.465Z,9.13
2023-02-19T07:19:15.106Z,9.13
2023-02-19T07:21:42.307Z,9.16
2023-02-19T07:24:10.178Z,9.20
2023-02-19T07:26:36.716Z,9.19
2023-02-19T07:29:04.062Z,9.26
2023-02-19T07:31:30.689Z,9.26
2023-02-19T07:33:57.347Z,9.21
2023-02-19T07:36:24.546Z,9.30
2023-02-19T07:38:57.872Z,9.23
2023-02-19T07:41:26.124Z,9.31
2023-02-19T07:43:53.792Z,9.30
2023-02-19T07:46:21.468Z,9.23
2023-02-19T07:48:47.852Z,9.26
2023-02-19T07:51:18.927Z,9.31
2023-02-19T07:53:46.818Z,9.26
2023-02-19T07:56:13.901Z,9.23
2023-02-19T07:58:40.948Z,9.33
2023-02-19T08:01:18.910Z,9.26
2023-02-19T08:03:45.962Z,9.24
2023-02-19T08:06:12.720Z,9.16
2023-02-19T08:08:39.993Z,9.18
2023-02-19T08:11:25.202Z,9.17
2023-02-19T08:13:53.423Z,9.15
2023-02-19T08:16:33.108Z,9.18
2023-02-19T08:19:03.794Z,9.24
2023-02-19T08:21:30.257Z,9.27
2023-02-19T08:23:56.633Z,9.29
2023-02-19T08:26:24.259Z,9.31
2023-02-19T08:28:50.598Z,9.23
2023-02-19T08:31:17.322Z,9.16
2023-02-19T08:33:43.753Z,9.18
2023-02-19T08:36:11.174Z,9.07
2023-02-19T08:38:38.496Z,9.05
2023-02-19T08:41:10.602Z,9.04
2023-02-19T08:43:37.413Z,9.05
2023-02-19T08:46:04.290Z,9.10
2023-02-19T08:48:30.952Z,9.15
2023-02-19T08:50:59.850Z,9.18
2023-02-19T08:53:26.686Z,9.20
2023-02-19T08:55:53.482Z,9.36
2023-02-19T08:58:19.828Z,9.42
2023-02-19T09:00:46.455Z,9.50
2023-02-19T09:03:12.976Z,9.33
2023-02-19T09:05:40.425Z,9.36
2023-02-19T09:08:06.772Z,9.55
2023-02-19T09:10:33.309Z,9.62
2023-02-19T09:13:00.774Z,9.77
2023-02-19T09:15:28.470Z,9.96
2023-02-19T09:17:55.167Z,9.99
2023-02-19T09:20:21.601Z,10.18
2023-02-19T09:22:48.068Z,10.17
2023-02-19T09:25:14.742Z,10.17
2023-02-19T09:27:41.186Z,10.35
2023-02-19T09:30:08.061Z,10.48
2023-02-19T09:32:34.431Z,10.35
2023-02-19T09:35:01.135Z,10.32
2023-02-19T09:37:28.206Z,10.29
2023-02-19T09:39:55.024Z,10.17
2023-02-19T09:42:26.597Z,10.31
2023-02-19T09:44:55.810Z,10.47
2023-02-19T09:47:28.300Z,10.31
2023-02-19T09:49:59.686Z,10.22
2023-02-19T09:52:34.154Z,10.32
2023-02-19T09:55:25.926Z,10.35
2023-02-19T09:57:53.204Z,10.41
2023-02-19T10:00:23.866Z,10.66
2023-02-19T10:02:58.438Z,10.59
2023-02-19T10:05:26.311Z,10.47
2023-02-19T10:07:54.288Z,10.51
2023-02-19T10:10:34.881Z,10.43
2023-02-19T10:13:30.394Z,10.23
2023-02-19T10:15:58.820Z,10.18
2023-02-19T10:18:31.058Z,10.27
2023-02-19T10:20:58.266Z,10.41
2023-02-19T10:23:25.773Z,10.28
2023-02-19T10:25:57.412Z,10.40
2023-02-19T10:28:28.556Z,10.43
2023-02-19T10:30:58.090Z,10.32
2023-02-19T10:33:25.623Z,10.21
2023-02-19T10:36:07.191Z,10.39
2023-02-19T10:38:37.984Z,10.52
2023-02-19T10:41:07.983Z,10.47
2023-02-19T10:43:42.422Z,10.42
2023-02-19T10:46:23.071Z,10.47
2023-02-19T10:48:55.620Z,10.36
2023-02-19T10:51:35.120Z,10.21
2023-02-19T10:54:36.125Z,10.24
2023-02-19T10:57:15.144Z,10.20
2023-02-19T10:59:53.611Z,10.00
2023-02-19T11:02:21.612Z,9.82
2023-02-19T11:05:09.110Z,9.83
2023-02-19T11:07:36.786Z,9.91
2023-02-19T11:10:05.482Z,9.76
2023-02-19T11:12:34.622Z,9.76
2023-02-19T11:15:20.781Z,9.81
2023-02-19T11:17:58.930Z,10.07
2023-02-19T11:20:26.229Z,10.16
2023-02-19T11:22:58.347Z,10.30
2023-02-19T11:25:25.833Z,10.32
2023-02-19T11:27:56.549Z,10.18
2023-02-19T11:30:36.406Z,9.93
2023-02-19T11:33:33.159Z,9.65
2023-02-19T11:36:14.848Z,9.49
2023-02-19T11:38:42.477Z,9.44
2023-02-19T11:41:18.272Z,9.51
2023-02-19T11:43:57.236Z,9.72
2023-02-19T11:46:30.245Z,10.25
2023-02-19T11:49:21.178Z,10.37
2023-02-19T11:52:03.384Z,10.60
2023-02-19T11:54:44.918Z,10.85
2023-02-19T11:57:52.369Z,10.61
2023-02-19T12:00:22.143Z,10.50
2023-02-19T12:03:13.546Z,10.77
2023-02-19T12:06:15.757Z,11.02
2023-02-19T12:08:57.718Z,11.11
2023-02-19T12:11:36.576Z,10.79
2023-02-19T12:14:08.740Z,10.73
2023-02-19T12:16:47.713Z,11.07
2023-02-19T12:19:32.631Z,10.90
2023-02-19T12:22:09.405Z,11.14
2023-02-19T12:25:14.301Z,10.83
2023-02-19T12:28:04.973Z,10.60
2023-02-19T12:30:40.196Z,10.41
2023-02-19T12:33:25.573Z,10.21
2023-02-19T12:35:55.236Z,10.18
2023-02-19T12:38:33.342Z,9.96
2023-02-19T12:41:33.822Z,9.74
2023-02-19T12:44:11.886Z,9.61
2023-02-19T12:46:49.305Z,9.62
2023-02-19T12:49:40.325Z,9.51
2023-02-19T12:52:10.058Z,9.47
2023-02-19T12:54:44.108Z,9.57
2023-02-19T12:57:15.592Z,9.43
2023-02-19T12:59:46.238Z,9.54
2023-02-19T13:02:22.218Z,9.54
2023-02-19T13:05:23.736Z,9.73
2023-02-19T13:08:03.900Z,9.88
2023-02-19T13:10:44.923Z,10.11
2023-02-19T13:13:24.034Z,10.31
2023-02-19T13:15:56.665Z,10.29
2023-02-19T13:18:28.901Z,10.72
2023-02-19T13:20:56.346Z,10.57
2023-02-19T13:23:49.923Z,10.30
2023-02-19T13:26:31.700Z,10.23
2023-02-19T13:29:16.706Z,10.28
2023-02-19T13:32:14.028Z,10.21
2023-02-19T13:34:59.254Z,10.10
2023-02-19T13:37:26.675Z,9.95
2023-02-19T13:39:55.125Z,10.05
2023-02-19T13:42:32.982Z,10.11
2023-02-19T13:45:01.161Z,9.99
2023-02-19T13:47:59.702Z,10.03
2023-02-19T13:50:31.660Z,10.20
2023-02-19T13:52:59.894Z,10.29
2023-02-19T13:55:46.484Z,10.51
2023-02-19T13:58:34.788Z,10.53
2023-02-19T14:01:10.516Z,10.81
2023-02-19T14:03:37.120Z,10.61
2023-02-19T14:06:06.560Z,10.67
2023-02-19T14:09:00.228Z,10.70
2023-02-19T14:11:41.847Z,10.44
2023-02-19T14:14:43.730Z,10.58
2023-02-19T14:17:10.118Z,10.65
2023-02-19T14:19:42.832Z,10.51
2023-02-19T14:22:46.090Z,10.33
2023-02-19T14:25:34.868Z,10.36
2023-02-19T14:28:21.499Z,10.44
2023-02-19T14:30:54.727Z,10.33
2023-02-19T14:33:23.630Z,10.17
2023-02-19T14:35:58.884Z,10.19
2023-02-19T14:38:27.596Z,10.07
2023-02-19T14:40:55.420Z,10.03
2023-02-19T14:43:25.100Z,10.01
2023-02-19T14:45:56.642Z,9.86
2023-02-19T14:48:35.202Z,9.75
2023-02-19T14:51:11.516Z,9.69
2023-02-19T14:53:43.037Z,9.49
2023-02-19T14:56:39.312Z,9.42
2023-02-19T14:59:11.801Z,9.46
2023-02-19T15:01:39.321Z,9.46
2023-02-19T15:04:06.551Z,9.42
2023-02-19T15:06:35.633Z,9.46
2023-02-19T15:09:05.868Z,9.48
2023-02-19T15:11:34.461Z,9.46
2023-02-19T15:14:03.835Z,9.51
2023-02-19T15:16:32.745Z,9.51
2023-02-19T15:19:00.063Z,9.51
2023-02-19T15:21:32.337Z,9.50
2023-02-19T15:24:04.976Z,9.49
2023-02-19T15:26:35.935Z,9.43
2023-02-19T15:29:08.960Z,9.50
2023-02-19T15:31:36.040Z,9.63
2023-02-19T15:34:02.691Z,9.70
2023-02-19T15:36:33.746Z,9.77
2023-02-19T15:39:02.505Z,9.74
2023-02-19T15:41:33.633Z,9.66
2023-02-19T15:44:15.241Z,9.63
2023-02-19T15:46:44.690Z,9.58
2023-02-19T15:49:21.954Z,9.66
2023-02-19T15:52:11.833Z,9.58
2023-02-19T15:54:52.488Z,9.60
2023-02-19T15:57:26.253Z,9.47
2023-02-19T16:00:05.526Z,9.52
2023-02-19T16:02:33.039Z,9.44
2023-02-19T16:05:02.098Z,9.43
2023-02-19T16:07:34.308Z,9.41
2023-02-19T16:10:19.494Z,9.43
2023-02-19T16:12:59.416Z,9.37
2023-02-19T16:15:27.998Z,9.34
2023-02-19T16:17:54.915Z,9.23
2023-02-19T16:20:26.119Z,9.21
2023-02-19T16:22:59.270Z,9.33
2023-02-19T16:25:40.333Z,9.10
2023-02-19T16:28:13.583Z,9.07
2023-02-19T16:30:41.394Z,9.12
2023-02-19T16:33:38.839Z,9.12
2023-02-19T16:36:21.732Z,9.02
2023-02-19T16:39:04.991Z,9.03
2023-02-19T16:41:31.629Z,8.97
2023-02-19T16:43:58.212Z,8.99
2023-02-19T16:46:24.593Z,8.92
2023-02-19T16:48:51.429Z,8.94
2023-02-19T16:51:23.549Z,8.92
2023-02-19T16:53:50.070Z,8.90
2023-02-19T16:56:18.799Z,8.98
2023-02-19T16:58:45.294Z,8.96
2023-02-19T17:01:12.165Z,8.97
2023-02-19T17:03:39.504Z,8.90
2023-02-19T17:06:06.009Z,8.90
2023-02-19T17:08:38.111Z,8.89
2023-02-19T17:11:10.694Z,8.93
2023-02-19T17:13:37.503Z,8.85
2023-02-19T17:16:04.595Z,9.02
2023-02-19T17:18:31.042Z,9.07
2023-02-19T17:21:10.896Z,8.84
2023-02-19T17:23:37.930Z,8.81
2023-02-19T17:26:04.527Z,8.89
2023-02-19T17:28:30.933Z,8.74
2023-02-19T17:30:57.372Z,8.58
2023-02-19T17:33:23.785Z,8.49
2023-02-19T17:35:50.228Z,8.40
2023-02-19T17:38:16.837Z,8.28
2023-02-19T17:40:44.981Z,8.24
2023-02-19T17:43:11.347Z,8.35
2023-02-19T17:45:38.303Z,8.33
2023-02-19T17:48:04.988Z,8.20
2023-02-19T17:50:32.353Z,8.18
2023-02-19T17:52:59.157Z,8.17
2023-02-19T17:55:25.921Z,8.26
2023-02-19T17:57:53.186Z,8.20
2023-02-19T18:00:26.569Z,8.26
2023-02-19T18:02:54.222Z,8.26
2023-02-19T18:05:21.070Z,8.27
2023-02-19T18:07:48.430Z,8.37
2023-02-19T18:10:19.557Z,8.27
2023-02-19T18:12:46.048Z,8.28
2023-02-19T18:15:30.601Z,8.33
2023-02-19T18:17:58.224Z,8.22
2023-02-19T18:20:28.974Z,8.36
2023-02-19T18:22:56.596Z,8.29
2023-02-19T18:25:24.164Z,8.26
2023-02-19T18:27:51.105Z,8.26
2023-02-19T18:30:19.320Z,8.23
2023-02-19T18:32:49.857Z,8.17
2023-02-19T18:35:17.831Z,8.11
2023-02-19T18:37:45.004Z,8.12
2023-02-19T18:40:12.167Z,8.09
2023-02-19T18:42:39.640Z,8.10
2023-02-19T18:45:06.559Z,8.12
2023-02-19T18:47:32.948Z,8.13
2023-02-19T18:49:59.812Z,8.11
2023-02-19T18:52:27.258Z,8.10
2023-02-19T18:54:55.303Z,8.17
2023-02-19T18:57:23.497Z,8.15
2023-02-19T18:59:50.510Z,8.08
2023-02-19T19:02:17.265Z,8.04
2023-02-19T19:04:48.120Z,8.11
2023-02-19T19:07:14.674Z,8.05
2023-02-19T19:09:41.034Z,8.02
2023-02-19T19:12:07.508Z,7.99
2023-02-19T19:14:34.497Z,7.99
2023-02-19T19:17:00.990Z,7.92
2023-02-19T19:19:27.464Z,8.01
2023-02-19T19:21:54.733Z,7.97
2023-02-19T19:24:22.368Z,8.07
2023-02-19T19:26:50.604Z,7.98
2023-02-19T19:29:20.357Z,7.96
2023-02-19T19:31:46.960Z,8.07
2023-02-19T19:34:13.993Z,7.93
2023-02-19T19:36:40.389Z,8.00
2023-02-19T19:39:07.165Z,7.94
2023-02-19T19:41:33.651Z,7.93
2023-02-19T19:44:06.300Z,7.97
2023-02-19T19:46:33.751Z,7.91
2023-02-19T19:49:00.541Z,7.82
2023-02-19T19:51:34.128Z,7.81
2023-02-19T19:54:01.856Z,7.75
2023-02-19T19:56:28.292Z,7.84
2023-02-19T19:58:54.708Z,7.81
2023-02-19T20:01:22.872Z,7.83
2023-02-19T20:03:51.038Z,7.90
2023-02-19T20:06:28.488Z,7.83
2023-02-19T20:08:55.080Z,7.83
2023-02-19T20:11:21.529Z,7.84
2023-02-19T20:13:48.154Z,7.88
2023-02-19T20:16:14.754Z,7.87
2023-02-19T20:18:41.980Z,7.81
2023-02-19T20:21:10.460Z,7.83
2023-02-19T20:23:40.334Z,7.81
2023-02-19T20:26:06.871Z,7.81
2023-02-19T20:28:34.104Z,7.79
2023-02-19T20:31:00.654Z,7.75
2023-02-19T20:33:27.153Z,7.82
2023-02-19T20:35:53.649Z,7.81
2023-02-19T20:38:20.097Z,7.80
2023-02-19T20:40:46.672Z,7.79
2023-02-19T20:43:13.053Z,7.76
2023-02-19T20:45:40.904Z,7.73
2023-02-19T20:48:07.409Z,7.79
2023-02-19T20:50:33.824Z,7.82
2023-02-19T20:53:00.269Z,7.83
2023-02-19T20:55:26.762Z,7.82
2023-02-19T20:57:53.128Z,7.71
2023-02-19T21:00:20.132Z,7.69
2023-02-19T21:02:46.880Z,7.66
2023-02-19T21:05:13.493Z,7.70
2023-02-19T21:07:39.951Z,7.65
2023-02-19T21:10:07.424Z,7.61
2023-02-19T21:12:33.817Z,7.70
2023-02-19T21:15:00.337Z,7.63
2023-02-19T21:17:26.747Z,7.69
2023-02-19T21:19:53.257Z,7.68
2023-02-19T21:22:19.743Z,7.63
2023-02-19T21:24:49.510Z,7.67
2023-02-19T21:27:16.103Z,7.62
2023-02-19T21:29:42.574Z,7.65
2023-02-19T21:32:09.145Z,7.67
2023-02-19T21:34:35.598Z,7.60
2023-02-19T21:37:02.162Z,7.61
2023-02-19T21:39:30.422Z,7.68
2023-02-19T21:41:58.608Z,7.58
2023-02-19T21:44:26.051Z,7.62
2023-02-19T21:46:52.479Z,7.67
2023-02-19T21:49:18.897Z,7.61
2023-02-19T21:51:47.810Z,7.65
2023-02-19T21:54:17.418Z,7.58
2023-02-19T21:56:44.246Z,7.60
2023-02-19T21:59:10.927Z,7.61
2023-02-19T22:01:42.071Z,7.58
2023-02-19T22:04:11.011Z,7.53
2023-02-19T22:06:39.442Z,7.51
2023-02-19T22:09:07.677Z,7.50
2023-02-19T22:11:34.188Z,7.53
2023-02-19T22:14:01.047Z,7.50
2023-02-19T22:16:28.667Z,7.46
2023-02-19T22:18:57.536Z,7.48
2023-02-19T22:21:26.812Z,7.27
2023-02-19T22:23:54.277Z,7.13
2023-02-19T22:26:29.050Z,7.14
2023-02-19T22:28:55.522Z,7.13
2023-02-19T22:31:24.550Z,7.11
2023-02-19T22:33:51.568Z,7.14
2023-02-19T22:36:21.170Z,7.10
2023-02-19T22:38:48.167Z,7.12
2023-02-19T22:41:15.993Z,7.17
2023-02-19T22:43:42.386Z,7.17
2023-02-19T22:46:19.975Z,6.96
2023-02-19T22:48:46.768Z,7.01
2023-02-19T22:51:15.729Z,6.87
2023-02-19T22:53:46.836Z,6.72
2023-02-19T22:56:14.871Z,6.58
2023-02-19T22:58:42.000Z,6.51
2023-02-19T23:01:10.115Z,6.50
2023-02-19T23:03:54.884Z,6.53
2023-02-19T23:06:30.173Z,6.41
2023-02-19T23:08:58.375Z,6.38
2023-02-19T23:11:30.883Z,6.33
2023-02-19T23:13:58.261Z,6.22
2023-02-19T23:16:25.433Z,6.09
2023-02-19T23:18:51.994Z,5.93
2023-02-19T23:21:18.768Z,5.97
2023-02-19T23:23:46.371Z,5.87
2023-02-19T23:26:14.265Z,5.82
2023-02-19T23:28:42.493Z,5.73
2023-02-19T23:31:10.105Z,5.85
2023-02-19T23:33:36.691Z,5.63
2023-02-19T23:36:03.368Z,5.55
2023-02-19T23:38:29.799Z,5.45
2023-02-19T23:40:56.198Z,5.44
2023-02-19T23:43:23.121Z,5.50
2023-02-19T23:45:49.666Z,5.30
2023-02-19T23:48:16.101Z,5.40
2023-02-19T23:50:42.907Z,5.32
2023-02-19T23:53:09.391Z,5.24
2023-02-19T23:55:35.785Z,5.27
2023-02-19T23:58:02.292Z,5.17
